Spring Mountain Youth Camp, Nevada Weather observations

Data are for 60 minute period ending at time listed.
 Day   Time   Solar   Ave.   Ave.  Ave.  Vector  Max.   Baro.   Total    
  of    of     Rad.   Air    Rel.  Wind   Wind   Wind  Press.  Precip.   
Year   Day            Temp.  Hum.  Speed  Dir.   Gust                    
2014   (PST)  Kw/m2    F      %     mph   deg.    mph    mb.     in.     
-------------------------------------------------------------------------
 109    2:00   0.00   41.0    51    2.0    36     3.4   789.1    0.00 
 109    3:00   0.00   41.2    51    1.2    21     2.3   789.2    0.00 
 109    4:00   0.00   40.3    53    1.8    36     4.2   789.4    0.00 
 109    5:00   0.00   39.2    55    3.1    38     4.2   789.4    0.00 
 109    6:00   0.02   39.2    55    2.0    17     3.1   789.8    0.00 
 109    7:00   0.17   45.6    44    1.2   352     4.3   790.1    0.00 
 109    8:00   0.40   48.8    41    2.1   332     7.3   790.5    0.00 
 109    9:00   0.70   50.5    39    3.4   201    12.5   790.9    0.00 
 109   10:00   0.88   51.4    42    6.1   158    14.5   791.2    0.00 
 109   11:00   0.81   52.8    40    5.8   147    17.1   791.3    0.00 
 109   12:00   0.44   51.1    40    6.3   161    19.1   791.3    0.00 
 109   13:00   0.26   50.3    45    4.7   150    11.6   791.3    0.00 
 109   14:00   0.44   51.2    45    4.0   137    14.6   791.2    0.00 
 109   15:00   0.35   52.2    43    2.9   120    10.0   791.0    0.00 
 109   16:00   0.35   53.1    38    2.9   279    10.2   791.1    0.00 
 109   17:00   0.34   53.6    37    3.0   295     9.9   791.2    0.00 
 109   18:00   0.03   49.7    43    1.1   235     4.5   791.2    0.00 
 109   19:00   0.01   47.9    48    1.0   277     3.1   791.1    0.00 
 109   20:00   0.00   47.5    47    2.0   272     5.1   791.5    0.00 
 109   21:00   0.00   45.5    50    1.2    32     3.4   791.8    0.00 
 109   22:00   0.00   46.3    49    1.6    25     3.3   792.0    0.00 
 109   23:00   0.00   45.5    51    1.7   100     3.8   792.0    0.00 
 110    0:00   0.00   45.8    50    3.5   110     5.1   792.1    0.00 
 110    1:00   0.00   45.7    49    2.8    93     4.5   792.0    0.00 

Return to Spring Mountain Youth Camp graphs page.


Western Regional Climate Center,wrcc@dri.edu